Time;durP1;ratioP1;P1;durP2;ratioP2;P2;SDS_P1;SDS_P2;PMS_P1;PMS_P2;Temp;Humidity;BMP_temperature;BMP_pressure;BME280_temperature;BME280_humidity;BME280_pressure;Samples;Min_cycle;Max_cycle;Signal;HPM_P1;HPM_P2
2022/06/17 00:01:03;;;;;;;58.75;25.75;;;;;;;15.61;100.00;102025.13;5055026;28;20139;-77
2022/06/17 00:03:31;;;;;;;56.38;24.27;;;;;;;15.63;100.00;102023.09;5094513;28;20028;-77
2022/06/17 00:06:00;;;;;;;51.75;25.58;;;;;;;15.71;100.00;102011.41;5092481;28;20488;-77
2022/06/17 00:08:30;;;;;;;54.75;23.75;;;;;;;15.80;100.00;102019.84;5090999;28;20396;-76
2022/06/17 00:10:56;;;;;;;59.20;25.77;;;;;;;15.84;100.00;102019.59;5088904;28;20119;-77
2022/06/17 00:13:23;;;;;;;48.88;25.77;;;;;;;15.77;100.00;102022.88;5094617;28;20036;-77
2022/06/17 00:15:49;;;;;;;52.78;26.42;;;;;;;15.92;100.00;102012.44;5076239;28;20036;-77
2022/06/17 00:18:17;;;;;;;66.07;28.17;;;;;;;15.87;100.00;102011.97;5063696;28;20471;-77
2022/06/17 00:20:43;;;;;;;54.88;27.90;;;;;;;15.87;100.00;102011.06;5081165;28;20044;-77
2022/06/17 00:23:15;;;;;;;71.65;30.95;;;;;;;15.94;100.00;102004.03;5074343;28;20107;-77
2022/06/17 00:25:41;;;;;;;61.38;29.50;;;;;;;15.69;100.00;101999.63;5091176;28;20111;-77
2022/06/17 00:28:13;;;;;;;71.55;28.48;;;;;;;15.68;100.00;102012.56;5073431;28;20483;-77
2022/06/17 00:30:39;;;;;;;54.83;28.90;;;;;;;15.65;100.00;102007.28;5088322;28;20554;-77
2022/06/17 00:33:04;;;;;;;63.85;30.77;;;;;;;15.60;100.00;102015.94;5092908;28;20108;-77
2022/06/17 00:35:37;;;;;;;53.17;28.90;;;;;;;15.66;100.00;102011.81;5094197;28;20059;-77
2022/06/17 00:38:03;;;;;;;52.40;29.13;;;;;;;15.42;100.00;102012.81;5076368;28;20048;-77
2022/06/17 00:40:32;;;;;;;71.28;29.75;;;;;;;15.45;100.00;102011.69;5069200;28;20052;-77
2022/06/17 00:43:05;;;;;;;64.38;28.70;;;;;;;15.44;100.00;102012.69;5073820;28;20035;-77
2022/06/17 00:45:37;;;;;;;63.60;29.77;;;;;;;15.45;100.00;102017.22;5092189;28;20383;-77
2022/06/17 00:48:16;;;;;;;70.75;30.05;;;;;;;15.68;100.00;102015.31;5079022;28;20068;-77
2022/06/17 00:50:59;;;;;;;60.90;28.60;;;;;;;15.78;100.00;102009.94;5073937;28;20071;-76
2022/06/17 00:53:30;;;;;;;65.25;30.23;;;;;;;15.72;100.00;102015.94;5074671;28;20036;-77
2022/06/17 00:55:58;;;;;;;62.60;28.45;;;;;;;15.74;100.00;102022.22;5093615;28;20028;-77
2022/06/17 00:58:53;;;;;;;56.67;30.20;;;;;;;15.61;100.00;102019.59;5083381;28;20032;-77
2022/06/17 01:01:22;;;;;;;71.15;31.20;;;;;;;15.63;100.00;102012.06;5079009;28;20085;-77
2022/06/17 01:03:55;;;;;;;66.20;29.67;;;;;;;15.78;100.00;102021.00;5075304;28;20033;-77
2022/06/17 01:06:26;;;;;;;60.63;31.35;;;;;;;15.79;100.00;102018.13;5075202;28;20029;-77
2022/06/17 01:11:45;;;;;;;68.40;33.63;;;;;;;15.89;100.00;102043.09;5075046;28;20039;-77
2022/06/17 01:14:14;;;;;;;80.55;36.08;;;;;;;15.91;100.00;102046.59;5068652;28;20037;-77
2022/06/17 01:16:42;;;;;;;71.32;34.90;;;;;;;15.72;100.00;102032.50;5073902;28;20027;-77
2022/06/17 01:19:35;;;;;;;103.63;38.85;;;;;;;15.78;100.00;102035.69;5081987;28;20426;-77
2022/06/17 01:22:42;;;;;;;104.38;40.03;;;;;;;15.71;100.00;102036.25;5074177;28;20043;-77
2022/06/17 01:25:28;;;;;;;86.93;37.92;;;;;;;15.59;100.00;102040.91;5040967;28;20124;-77
2022/06/17 01:28:00;;;;;;;85.03;41.30;;;;;;;15.68;100.00;102036.53;5058550;28;20111;-78
2022/06/17 01:30:45;;;;;;;103.53;40.85;;;;;;;15.68;100.00;102045.69;5071959;28;20063;-77
2022/06/17 01:33:19;;;;;;;99.70;37.60;;;;;;;15.66;100.00;102046.81;5078411;28;20034;-77
2022/06/17 01:35:58;;;;;;;82.78;39.50;;;;;;;15.58;100.00;102030.91;5076662;28;20034;-78
2022/06/17 01:38:26;;;;;;;82.03;34.80;;;;;;;15.57;100.00;102032.75;5070216;28;20495;-77
2022/06/17 01:40:53;;;;;;;81.25;37.17;;;;;;;15.33;100.00;102035.66;5091266;28;20528;-77
2022/06/17 01:43:21;;;;;;;74.05;34.60;;;;;;;15.32;100.00;102028.34;5093396;28;20089;-79
2022/06/17 01:45:59;;;;;;;87.13;36.67;;;;;;;15.20;100.00;102030.22;5092220;28;20081;-78
2022/06/17 01:48:28;;;;;;;71.88;35.45;;;;;;;14.96;100.00;102023.91;5080892;28;20055;-78
2022/06/17 01:50:57;;;;;;;74.18;34.60;;;;;;;15.19;100.00;102025.69;5089928;28;20085;-77
2022/06/17 01:53:29;;;;;;;78.50;37.03;;;;;;;14.99;100.00;102019.03;5081024;28;20046;-77
2022/06/17 01:56:01;;;;;;;79.63;36.58;;;;;;;14.89;100.00;102015.25;5079683;28;20129;-77
2022/06/17 01:58:37;;;;;;;78.50;36.40;;;;;;;14.84;100.00;102007.31;5084163;28;20040;-77
2022/06/17 02:01:05;;;;;;;82.22;35.65;;;;;;;14.88;100.00;102013.47;5078495;28;20365;-76
2022/06/17 02:03:36;;;;;;;68.30;36.13;;;;;;;14.80;100.00;102019.59;5075240;28;20028;-76
2022/06/17 02:06:04;;;;;;;91.07;38.70;;;;;;;14.88;100.00;102024.50;5086229;28;20032;-77
2022/06/17 02:08:30;;;;;;;83.95;39.35;;;;;;;14.83;100.00;102026.75;5079536;28;20028;-77
2022/06/17 02:10:56;;;;;;;83.00;38.60;;;;;;;14.83;100.00;102021.22;5088670;28;20372;-76
2022/06/17 02:13:21;;;;;;;93.90;39.15;;;;;;;14.82;100.00;102020.38;5064007;28;20071;-76
2022/06/17 02:15:47;;;;;;;70.93;36.83;;;;;;;14.86;100.00;102023.75;5075900;28;20376;-76
2022/06/17 02:18:19;;;;;;;82.93;39.13;;;;;;;14.87;100.00;102025.50;5084669;28;20035;-76
2022/06/17 02:20:50;;;;;;;85.03;36.60;;;;;;;14.88;100.00;102022.63;5084390;28;20044;-76
2022/06/17 02:23:15;;;;;;;91.97;40.50;;;;;;;14.82;100.00;102017.59;5091928;28;20107;-76
2022/06/17 02:25:45;;;;;;;86.75;39.97;;;;;;;14.74;100.00;102019.19;5079109;28;20166;-77
2022/06/17 02:28:11;;;;;;;74.10;37.08;;;;;;;14.84;100.00;102020.25;5080834;28;20487;-76
2022/06/17 02:30:39;;;;;;;85.53;39.95;;;;;;;14.84;100.00;102017.50;5091477;28;20042;-77
2022/06/17 02:33:06;;;;;;;84.35;41.40;;;;;;;14.73;100.00;102012.81;5081583;28;20040;-76
2022/06/17 02:35:54;;;;;;;87.20;40.85;;;;;;;14.76;100.00;102019.94;5072599;28;20078;-78
2022/06/17 02:38:25;;;;;;;93.13;40.20;;;;;;;14.66;100.00;102022.56;5082654;28;20044;-76
2022/06/17 02:40:54;;;;;;;79.75;39.92;;;;;;;14.63;100.00;102031.94;5081292;28;20043;-76
2022/06/17 02:43:25;;;;;;;101.47;42.10;;;;;;;14.65;100.00;102031.81;5084722;28;20036;-76
2022/06/17 02:45:59;;;;;;;84.53;42.30;;;;;;;14.72;100.00;102021.19;5087430;28;20028;-77
2022/06/17 02:48:31;;;;;;;84.68;39.65;;;;;;;14.77;100.00;102019.81;5073607;28;20400;-77
2022/06/17 02:50:59;;;;;;;80.20;40.55;;;;;;;14.73;100.00;102015.56;5078866;28;20418;-77
2022/06/17 02:53:32;;;;;;;89.03;40.03;;;;;;;14.72;100.00;102013.78;5093331;28;20036;-77
2022/06/17 02:56:01;;;;;;;81.32;38.67;;;;;;;14.75;100.00;102018.19;5080094;28;20049;-76
2022/06/17 02:58:52;;;;;;;74.30;35.55;;;;;;;15.01;100.00;102017.00;5085862;28;20071;-77
2022/06/17 03:01:24;;;;;;;72.25;34.72;;;;;;;15.14;100.00;102019.69;5061839;28;20510;-76
2022/06/17 03:03:52;;;;;;;81.03;33.80;;;;;;;15.32;100.00;102016.44;5067562;28;20074;-77
2022/06/17 03:06:27;;;;;;;64.93;31.45;;;;;;;15.35;100.00;102018.97;5077647;28;20444;-76
2022/06/17 03:08:56;;;;;;;71.20;34.55;;;;;;;15.24;100.00;102019.81;5075631;28;20480;-77
2022/06/17 03:11:21;;;;;;;74.22;34.30;;;;;;;15.22;100.00;102008.91;5076409;28;20421;-76
2022/06/17 03:14:01;;;;;;;64.82;32.90;;;;;;;15.29;100.00;102016.69;5093317;28;20097;-77
2022/06/17 03:16:27;;;;;;;69.30;32.42;;;;;;;15.29;100.00;102016.69;5091848;28;20028;-77
2022/06/17 03:18:53;;;;;;;71.38;34.58;;;;;;;15.19;100.00;102019.31;5071955;28;20052;-77
2022/06/17 03:21:23;;;;;;;65.45;32.60;;;;;;;15.26;100.00;102012.28;5077208;28;20033;-77
2022/06/17 03:24:01;;;;;;;81.90;34.78;;;;;;;15.14;100.00;102016.91;5073756;28;20111;-77
2022/06/17 03:26:32;;;;;;;64.43;32.35;;;;;;;15.22;100.00;102013.56;5072376;28;20062;-77
2022/06/17 03:29:02;;;;;;;72.35;31.90;;;;;;;15.16;100.00;102019.56;5055839;28;20040;-77
2022/06/17 03:31:50;;;;;;;71.25;33.25;;;;;;;15.12;100.00;102026.31;5067129;28;20031;-77
2022/06/17 03:34:24;;;;;;;74.03;31.88;;;;;;;15.09;100.00;102027.44;5072938;28;20441;-77
2022/06/17 03:36:59;;;;;;;71.88;32.10;;;;;;;14.97;100.00;102029.31;5072348;28;20391;-77
2022/06/17 03:39:51;;;;;;;66.57;31.50;;;;;;;15.06;100.00;102035.97;5073498;28;20472;-77
2022/06/17 03:42:34;;;;;;;71.50;34.10;;;;;;;15.01;100.00;102036.31;5061216;28;20551;-77
2022/06/17 03:45:16;;;;;;;79.55;37.70;;;;;;;15.08;100.00;102044.97;5086248;28;20111;-77
2022/06/17 03:48:14;;;;;;;66.72;34.42;;;;;;;15.18;100.00;102046.03;5090306;28;20032;-78
2022/06/17 03:50:44;;;;;;;68.45;35.25;;;;;;;15.15;100.00;102046.28;5075681;28;20051;-77
2022/06/17 03:53:24;;;;;;;64.70;34.92;;;;;;;15.17;100.00;102051.66;5080235;28;20028;-77
2022/06/17 03:55:51;;;;;;;66.00;33.53;;;;;;;15.29;100.00;102056.19;5076871;28;20035;-77
2022/06/17 03:58:19;;;;;;;64.28;32.85;;;;;;;15.17;100.00;102054.44;5064301;28;20491;-77
2022/06/17 04:00:53;;;;;;;75.15;34.35;;;;;;;15.25;100.00;102050.06;5081480;28;20028;-77
2022/06/17 04:03:25;;;;;;;66.35;35.08;;;;;;;15.16;100.00;102055.41;5082465;28;20506;-77
2022/06/17 04:06:00;;;;;;;78.35;39.45;;;;;;;15.13;100.00;102053.78;5077764;28;20029;-77
2022/06/17 04:08:26;;;;;;;76.70;36.45;;;;;;;15.33;100.00;102057.72;5074906;28;20032;-77
2022/06/17 04:10:51;;;;;;;67.35;35.38;;;;;;;15.40;100.00;102058.09;5074678;28;20062;-78
2022/06/17 04:13:22;;;;;;;68.45;35.40;;;;;;;15.52;100.00;102051.56;5088642;28;20364;-78
2022/06/17 04:16:03;;;;;;;76.28;32.88;;;;;;;15.66;100.00;102058.75;5094149;28;20028;-78
2022/06/17 04:18:33;;;;;;;64.57;31.00;;;;;;;15.83;100.00;102053.75;5090478;28;20028;-77
2022/06/17 04:20:59;;;;;;;58.60;30.65;;;;;;;15.93;100.00;102052.00;5061769;28;20368;-77
2022/06/17 04:23:32;;;;;;;65.95;29.75;;;;;;;16.06;100.00;102054.63;5076763;28;20028;-77
2022/06/17 04:26:10;;;;;;;69.70;32.97;;;;;;;16.10;100.00;102047.81;5068879;28;20036;-77
2022/06/17 04:28:43;;;;;;;62.30;30.50;;;;;;;16.11;100.00;102042.16;5083822;28;20028;-77
2022/06/17 04:31:15;;;;;;;65.50;32.67;;;;;;;16.08;100.00;102038.78;5083964;28;20492;-77
2022/06/17 04:34:07;;;;;;;70.93;35.65;;;;;;;16.05;100.00;102039.03;5092952;28;20035;-77
2022/06/17 04:36:40;;;;;;;64.15;31.65;;;;;;;16.15;100.00;102054.72;5090544;28;20032;-78
2022/06/17 04:39:21;;;;;;;65.03;31.85;;;;;;;16.29;100.00;102044.41;5094402;28;20051;-78
2022/06/17 04:41:51;;;;;;;57.22;29.90;;;;;;;16.49;100.00;102034.41;5075082;28;20442;-77
2022/06/17 04:44:17;;;;;;;66.82;31.02;;;;;;;16.49;100.00;102032.50;5082640;28;20464;-76
2022/06/17 04:46:48;;;;;;;59.90;29.77;;;;;;;16.52;100.00;102035.00;5077694;28;20048;-77
2022/06/17 04:49:26;;;;;;;73.80;30.35;;;;;;;16.56;100.00;102043.94;5088287;28;20044;-77
2022/06/17 04:52:00;;;;;;;54.42;27.60;;;;;;;16.66;100.00;102042.13;5075458;28;20459;-76
2022/06/17 04:54:28;;;;;;;59.90;28.30;;;;;;;16.76;100.00;102044.97;5089669;28;20089;-76
2022/06/17 04:56:56;;;;;;;56.38;28.20;;;;;;;16.79;100.00;102036.44;5086127;28;20111;-76
2022/06/17 04:59:40;;;;;;;59.13;28.25;;;;;;;16.77;100.00;102041.19;5087740;28;20044;-75
2022/06/17 05:02:14;;;;;;;59.78;27.30;;;;;;;16.87;100.00;102036.66;5079238;28;20476;-75
2022/06/17 05:04:41;;;;;;;59.63;28.35;;;;;;;16.96;100.00;102034.09;5090650;28;20168;-77
2022/06/17 05:07:06;;;;;;;61.63;28.33;;;;;;;17.11;100.00;102031.88;5077609;28;20387;-76
2022/06/17 05:09:43;;;;;;;62.83;27.88;;;;;;;17.13;100.00;102035.38;5093553;28;20039;-77
2022/06/17 05:12:18;;;;;;;52.50;27.45;;;;;;;17.03;100.00;102029.78;5075513;28;20111;-77
2022/06/17 05:14:52;;;;;;;66.47;28.27;;;;;;;17.04;100.00;102024.13;5084776;28;20485;-77
2022/06/17 05:17:18;;;;;;;61.25;26.52;;;;;;;17.12;100.00;102026.22;5089022;28;20036;-77
2022/06/17 05:19:44;;;;;;;65.82;27.55;;;;;;;17.11;100.00;102013.38;5093742;28;20100;-77
2022/06/17 05:22:35;;;;;;;59.70;26.77;;;;;;;17.09;100.00;102010.75;5067733;28;20037;-78
2022/06/17 05:25:04;;;;;;;58.22;27.08;;;;;;;17.08;100.00;102011.75;5068815;28;20065;-77
2022/06/17 05:27:30;;;;;;;57.97;26.92;;;;;;;17.14;100.00;102020.53;5078259;28;20028;-77
2022/06/17 05:29:55;;;;;;;53.13;26.90;;;;;;;17.31;100.00;102019.91;5058328;28;20037;-77
2022/06/17 05:32:22;;;;;;;61.53;26.65;;;;;;;17.47;100.00;102018.53;5087224;28;20036;-78
2022/06/17 05:34:48;;;;;;;51.28;27.00;;;;;;;17.68;100.00;102007.41;5074295;28;20039;-79
2022/06/17 05:37:15;;;;;;;60.22;27.00;;;;;;;17.97;100.00;102011.19;5076029;28;20043;-77
2022/06/17 05:39:40;;;;;;;53.33;26.85;;;;;;;18.50;100.00;102009.94;5075345;28;20040;-77
2022/06/17 05:42:07;;;;;;;52.65;26.65;;;;;;;18.54;100.00;102021.63;5071689;28;20044;-77
2022/06/17 05:44:33;;;;;;;54.00;26.30;;;;;;;18.74;100.00;102016.94;5087422;28;20341;-77
2022/06/17 05:46:58;;;;;;;53.67;26.95;;;;;;;18.95;100.00;102008.50;5081943;28;20459;-77
2022/06/17 05:49:24;;;;;;;52.58;25.63;;;;;;;19.94;100.00;102010.84;5074165;28;20089;-77
2022/06/17 05:51:50;;;;;;;52.80;26.38;;;;;;;19.60;100.00;102011.41;5082275;28;20040;-78
2022/06/17 05:54:16;;;;;;;61.03;27.58;;;;;;;19.57;100.00;102021.94;5093034;28;20111;-77
2022/06/17 05:56:41;;;;;;;59.25;25.83;;;;;;;19.64;100.00;102018.41;5081327;28;20127;-77
2022/06/17 05:59:07;;;;;;;56.47;26.65;;;;;;;19.27;100.00;102030.38;5074046;28;20610;-77
2022/06/17 06:01:33;;;;;;;63.80;27.33;;;;;;;19.21;100.00;102030.09;5079258;28;20040;-78
2022/06/17 06:03:58;;;;;;;63.60;27.75;;;;;;;19.26;100.00;102025.81;5080602;28;20034;-79
2022/06/17 06:06:24;;;;;;;59.63;26.50;;;;;;;19.27;100.00;102021.16;5066669;28;20101;-77
2022/06/17 06:08:49;;;;;;;58.15;25.52;;;;;;;19.28;100.00;102017.34;5077928;28;20040;-78
2022/06/17 06:11:15;;;;;;;74.63;26.17;;;;;;;19.31;100.00;102025.38;5066924;28;20040;-78
2022/06/17 06:13:40;;;;;;;57.08;24.95;;;;;;;19.23;100.00;102020.59;5058277;28;20111;-77
2022/06/17 06:16:08;;;;;;;48.35;23.50;;;;;;;19.21;100.00;102007.88;5089383;28;20474;-76
2022/06/17 06:18:36;;;;;;;62.60;23.75;;;;;;;19.36;100.00;102011.91;5080189;28;20045;-77
2022/06/17 06:21:07;;;;;;;64.43;25.15;;;;;;;19.35;100.00;102000.94;5073061;28;20033;-77
2022/06/17 06:23:34;;;;;;;53.05;26.58;;;;;;;19.59;100.00;102001.28;5093775;28;20032;-78
2022/06/17 06:26:00;;;;;;;51.65;25.88;;;;;;;19.81;100.00;101991.72;5079079;28;20450;-77
2022/06/17 06:28:28;;;;;;;54.10;25.88;;;;;;;19.75;100.00;101986.78;5086460;28;20059;-77
2022/06/17 06:31:01;;;;;;;50.47;23.25;;;;;;;19.64;100.00;101995.28;5090491;28;20107;-77
2022/06/17 06:33:27;;;;;;;66.75;25.10;;;;;;;19.70;100.00;102002.16;5094647;28;20099;-76
2022/06/17 06:35:53;;;;;;;48.83;23.92;;;;;;;19.49;100.00;102003.25;5071953;28;20131;-76
2022/06/17 06:38:18;;;;;;;52.60;22.63;;;;;;;19.52;100.00;101991.84;5076570;28;20127;-76
2022/06/17 06:40:44;;;;;;;49.33;23.40;;;;;;;19.72;100.00;101994.53;5093770;28;20044;-76
2022/06/17 06:43:16;;;;;;;54.63;24.00;;;;;;;20.17;100.00;101988.16;5091585;28;20112;-76
2022/06/17 06:45:43;;;;;;;43.47;20.77;;;;;;;20.37;100.00;101989.75;5092416;28;20059;-77
2022/06/17 06:48:10;;;;;;;44.35;21.08;;;;;;;20.07;100.00;101993.78;5081779;28;20059;-77
2022/06/17 06:50:37;;;;;;;51.00;22.48;;;;;;;20.33;100.00;102009.69;5074420;28;20483;-77
2022/06/17 06:53:03;;;;;;;52.28;20.63;;;;;;;20.29;100.00;102020.28;5072482;28;20043;-75
2022/06/17 06:55:29;;;;;;;42.50;19.92;;;;;;;20.35;100.00;102016.00;5072212;28;20056;-77
2022/06/17 06:58:00;;;;;;;41.35;18.88;;;;;;;20.40;100.00;102013.63;5073272;28;20068;-76
2022/06/17 07:00:33;;;;;;;46.53;18.40;;;;;;;20.53;100.00;102005.75;5069792;28;20446;-75
2022/06/17 07:03:00;;;;;;;43.15;17.20;;;;;;;21.02;100.00;102002.56;5091008;28;20055;-76
2022/06/17 07:05:25;;;;;;;38.20;16.40;;;;;;;21.12;100.00;102010.81;5085042;28;20085;-75
2022/06/17 07:07:51;;;;;;;23.13;13.07;;;;;;;20.90;98.91;102014.97;5092432;28;20035;-76
2022/06/17 07:10:25;;;;;;;25.88;12.82;;;;;;;20.95;100.00;102006.16;5071233;28;20043;-76
2022/06/17 07:12:52;;;;;;;25.00;12.07;;;;;;;21.57;95.64;102006.09;5079735;28;20032;-76
2022/06/17 07:15:18;;;;;;;29.98;11.30;;;;;;;21.82;92.83;102016.31;5084748;28;20074;-76
2022/06/17 07:18:06;;;;;;;32.90;12.57;;;;;;;21.69;94.27;102013.09;5090705;28;20124;-75
2022/06/17 07:20:37;;;;;;;29.35;13.02;;;;;;;21.56;95.50;102009.91;5092156;28;20020;-76
2022/06/17 07:23:04;;;;;;;49.70;13.63;;;;;;;21.61;95.12;102010.25;5076889;28;20980;-77
2022/06/17 07:25:30;;;;;;;27.85;12.13;;;;;;;21.62;94.74;102006.44;5060956;28;20147;-76
2022/06/17 07:27:55;;;;;;;29.02;12.75;;;;;;;21.48;95.64;102016.31;5079814;28;20522;-75
2022/06/17 07:30:21;;;;;;;26.20;11.32;;;;;;;21.50;93.92;102027.28;5078056;28;20040;-76
2022/06/17 07:32:47;;;;;;;30.02;12.20;;;;;;;21.64;97.11;102018.31;5071439;28;20041;-76
2022/06/17 07:35:14;;;;;;;45.33;13.13;;;;;;;22.56;88.66;102008.19;5074283;28;20115;-77
2022/06/17 07:40:23;;;;;;;27.23;10.45;;;;;;;23.05;84.32;102014.84;5092620;28;20483;-75
2022/06/17 07:42:50;;;;;;;26.17;11.48;;;;;;;23.45;82.29;102004.69;5082022;28;20047;-75
2022/06/17 07:45:18;;;;;;;35.42;10.60;;;;;;;23.42;80.00;102002.25;5041439;28;20476;-75
2022/06/17 07:47:48;;;;;;;23.55;10.65;;;;;;;23.71;80.73;101992.34;5082276;28;20035;-75
2022/06/17 07:50:19;;;;;;;22.63;9.85;;;;;;;23.60;79.69;102002.03;5083934;28;20127;-75
2022/06/17 07:52:45;;;;;;;23.55;10.15;;;;;;;23.50;78.15;102010.63;5076449;28;20487;-75
2022/06/17 07:55:11;;;;;;;22.98;9.82;;;;;;;23.56;78.19;101997.81;5085390;28;20031;-75
2022/06/17 07:57:36;;;;;;;20.58;9.77;;;;;;;23.35;77.98;101995.59;5077517;28;20044;-76
2022/06/17 08:00:05;;;;;;;29.83;9.70;;;;;;;23.38;78.20;101996.16;5101431;28;20060;-77
2022/06/17 08:02:31;;;;;;;23.60;9.40;;;;;;;24.08;74.97;102000.09;5074839;28;20126;-75
2022/06/17 08:04:56;;;;;;;20.98;9.10;;;;;;;24.55;74.95;102009.44;5077915;28;20437;-75
2022/06/17 08:07:22;;;;;;;21.35;9.95;;;;;;;24.38;74.21;102014.25;5082271;28;20087;-75
2022/06/17 08:09:48;;;;;;;26.50;9.25;;;;;;;24.19;75.57;102010.88;5068036;28;20571;-75
2022/06/17 08:12:13;;;;;;;15.98;8.75;;;;;;;24.33;73.63;102011.16;5074469;28;20111;-75
2022/06/17 08:14:44;;;;;;;18.13;8.45;;;;;;;24.85;74.59;102004.00;5082696;28;20060;-76
2022/06/17 08:17:12;;;;;;;19.40;7.32;;;;;;;25.37;70.28;102003.16;5096387;28;20437;-76
2022/06/17 08:19:39;;;;;;;18.50;7.82;;;;;;;25.54;69.90;102009.47;5078422;28;20183;-76
2022/06/17 08:22:05;;;;;;;17.40;9.38;;;;;;;25.33;69.57;102000.94;5081006;28;20129;-76
2022/06/17 08:24:30;;;;;;;19.05;8.27;;;;;;;25.70;67.58;102002.78;5083394;28;20395;-76
2022/06/17 08:26:56;;;;;;;18.48;8.18;;;;;;;25.12;69.37;102005.28;5075200;28;20031;-76
2022/06/17 08:29:22;;;;;;;28.50;7.35;;;;;;;25.40;65.14;102007.50;5087144;28;20033;-75
2022/06/17 08:31:48;;;;;;;13.70;7.03;;;;;;;25.69;63.35;102006.66;5076095;28;20107;-76
2022/06/17 08:34:14;;;;;;;16.00;6.68;;;;;;;25.67;63.64;102011.59;5074409;28;20462;-75
2022/06/17 08:36:40;;;;;;;21.35;6.10;;;;;;;26.03;63.64;102010.81;5054986;28;20089;-76
2022/06/17 08:39:10;;;;;;;27.40;6.38;;;;;;;26.42;61.03;102015.19;5081398;28;20101;-75
2022/06/17 08:41:48;;;;;;;16.58;6.28;;;;;;;26.38;59.81;102013.84;5074576;28;20032;-76
2022/06/17 08:44:29;;;;;;;16.23;5.75;;;;;;;26.34;59.57;102016.19;5080763;28;20077;-75
2022/06/17 08:47:37;;;;;;;14.18;5.78;;;;;;;26.30;61.05;102014.84;5078402;28;20081;-75
2022/06/17 08:50:05;;;;;;;14.82;5.13;;;;;;;26.84;57.00;102016.31;5076025;28;20537;-75
2022/06/17 08:53:15;;;;;;;14.05;4.82;;;;;;;26.66;57.73;102014.00;5075325;28;20035;-74
2022/06/17 08:56:18;;;;;;;20.50;5.68;;;;;;;25.87;56.55;102003.44;5049302;28;20064;-75
2022/06/17 08:59:05;;;;;;;12.77;5.82;;;;;;;26.20;56.54;101989.00;5078060;28;20064;-75
2022/06/17 09:01:43;;;;;;;19.75;6.65;;;;;;;26.41;55.55;101985.34;5076620;28;20036;-76
2022/06/17 09:04:39;;;;;;;17.42;5.50;;;;;;;26.15;55.75;101997.16;5076133;28;20021;-75
2022/06/17 09:07:24;;;;;;;14.77;5.78;;;;;;;25.71;55.55;101995.25;5086248;28;20515;-75
2022/06/17 09:10:14;;;;;;;13.45;5.47;;;;;;;25.57;55.11;101995.06;5084930;28;20467;-76
2022/06/17 09:12:54;;;;;;;16.00;5.05;;;;;;;25.75;54.23;101988.19;5091467;28;20035;-76
2022/06/17 09:15:35;;;;;;;13.63;5.28;;;;;;;25.97;55.39;101989.16;5087068;28;20115;-76
2022/06/17 09:18:30;;;;;;;14.60;6.40;;;;;;;25.92;55.43;101989.69;5083882;28;20119;-76
2022/06/17 09:21:18;;;;;;;16.13;5.88;;;;;;;26.54;55.58;101995.88;5075723;28;20082;-77
2022/06/17 09:23:44;;;;;;;15.27;5.95;;;;;;;27.02;52.18;101995.28;5077721;28;20032;-76
2022/06/17 09:26:32;;;;;;;16.00;6.22;;;;;;;27.08;51.63;102005.72;5081127;28;20115;-77
2022/06/17 09:29:17;;;;;;;24.13;5.95;;;;;;;27.47;51.03;102001.50;5074203;28;20518;-76
2022/06/17 09:31:51;;;;;;;13.20;4.70;;;;;;;27.45;53.27;102004.53;5085247;28;20032;-76
2022/06/17 09:34:44;;;;;;;21.33;6.20;;;;;;;27.34;51.32;101995.78;5084457;28;20039;-76
2022/06/17 09:37:43;;;;;;;10.98;5.45;;;;;;;27.44;51.42;101997.16;5081443;28;20020;-76
2022/06/17 09:40:32;;;;;;;20.55;5.90;;;;;;;27.47;52.37;101987.44;5073306;28;20056;-77
2022/06/17 09:43:11;;;;;;;12.80;5.47;;;;;;;27.82;50.78;101979.84;5078758;28;20024;-77
2022/06/17 09:46:06;;;;;;;14.98;5.88;;;;;;;27.78;51.34;101980.47;5072544;28;20492;-76
2022/06/17 09:48:48;;;;;;;12.20;5.28;;;;;;;27.63;50.29;101984.28;5067137;28;20045;-77
2022/06/17 09:51:28;;;;;;;17.05;6.05;;;;;;;28.12;50.34;102002.13;5080985;28;20059;-76
2022/06/17 09:53:57;;;;;;;10.90;4.78;;;;;;;27.82;49.11;101995.88;5082355;28;20036;-76
2022/06/17 09:56:33;;;;;;;17.13;5.95;;;;;;;28.17;44.91;101993.91;5078627;28;20043;-76
2022/06/17 09:59:16;;;;;;;13.48;4.43;;;;;;;28.09;46.05;101993.19;5079052;28;20036;-76
2022/06/17 10:01:43;;;;;;;10.35;4.55;;;;;;;28.22;46.42;101984.78;5076493;28;20086;-76
2022/06/17 10:04:10;;;;;;;12.32;4.72;;;;;;;27.94;49.09;101994.25;5080382;28;20050;-77
2022/06/17 10:07:01;;;;;;;11.18;4.38;;;;;;;28.13;47.84;101995.38;5084463;28;20036;-77
2022/06/17 10:09:44;;;;;;;12.43;4.85;;;;;;;28.04;48.62;101999.47;5085885;28;20086;-76
2022/06/17 10:12:27;;;;;;;11.30;5.00;;;;;;;28.59;46.47;101989.03;5055385;28;20024;-75
2022/06/17 10:15:08;;;;;;;21.27;5.85;;;;;;;28.58;45.90;101980.78;5074941;28;20554;-76
2022/06/17 10:20:39;;;;;;;10.50;4.80;;;;;;;28.27;45.57;101973.78;5073316;28;20044;-77
2022/06/17 10:23:05;;;;;;;12.15;5.35;;;;;;;28.65;44.37;101972.38;5087267;28;20128;-76
2022/06/17 10:26:21;;;;;;;8.10;4.32;;;;;;;28.46;45.43;101966.44;5055962;28;20071;-76
2022/06/17 10:28:57;;;;;;;11.38;4.22;;;;;;;28.39;45.15;101957.97;5075493;28;20048;-77
2022/06/17 10:31:40;;;;;;;16.63;5.30;;;;;;;28.36;45.26;101951.91;5083139;28;20037;-77
2022/06/17 10:34:13;;;;;;;23.98;6.10;;;;;;;28.30;48.14;101952.75;5089418;28;20081;-77
2022/06/17 10:36:39;;;;;;;11.98;4.55;;;;;;;28.53;46.14;101952.34;5070451;28;20483;-74
2022/06/17 10:39:06;;;;;;;18.60;5.47;;;;;;;28.61;48.05;101943.72;5072637;28;20074;-77
2022/06/17 10:41:32;;;;;;;21.70;5.63;;;;;;;28.38;45.82;101947.81;5072334;28;20480;-77
2022/06/17 10:43:58;;;;;;;14.95;5.63;;;;;;;28.42;45.42;101949.09;5074802;28;20028;-76
2022/06/17 10:46:29;;;;;;;20.27;6.85;;;;;;;28.44;44.88;101946.06;5092848;28;20105;-76
2022/06/17 10:49:21;;;;;;;22.17;6.85;;;;;;;28.92;44.79;101931.81;5087571;28;20029;-76
2022/06/17 10:51:51;;;;;;;13.75;7.55;;;;;;;28.93;42.78;101935.50;5074584;28;20493;-76
2022/06/17 10:54:26;;;;;;;23.23;7.85;;;;;;;29.12;44.03;101940.28;5071511;28;20028;-76
2022/06/17 10:57:12;;;;;;;17.63;7.57;;;;;;;29.25;41.59;101945.03;5073505;28;20035;-76
2022/06/17 10:59:41;;;;;;;15.02;6.28;;;;;;;29.22;45.15;101941.78;5077451;28;20503;-76
2022/06/17 11:02:25;;;;;;;18.52;6.80;;;;;;;28.86;44.17;101937.44;5079351;28;20081;-76
2022/06/17 11:04:54;;;;;;;19.38;7.70;;;;;;;29.11;44.04;101946.13;5074950;28;20436;-76
2022/06/17 11:07:34;;;;;;;16.15;6.35;;;;;;;29.31;38.92;101932.88;5071837;28;20055;-76
2022/06/17 11:10:03;;;;;;;15.45;6.85;;;;;;;29.37;40.29;101927.44;5073181;28;20032;-76
2022/06/17 11:12:35;;;;;;;19.98;8.57;;;;;;;29.23;41.14;101927.47;5081839;28;20491;-76
2022/06/17 11:15:05;;;;;;;17.85;7.93;;;;;;;29.60;42.18;101918.47;5082606;28;20056;-76
2022/06/17 11:17:46;;;;;;;13.45;7.50;;;;;;;29.35;40.21;101921.16;5091851;28;20031;-76
2022/06/17 11:20:14;;;;;;;18.02;7.53;;;;;;;29.28;39.86;101927.66;5078076;28;20035;-76
2022/06/17 11:22:41;;;;;;;10.05;5.07;;;;;;;29.09;38.72;101934.19;5078134;28;20025;-76
2022/06/17 11:25:22;;;;;;;14.70;6.75;;;;;;;29.31;40.60;101923.56;5082955;28;20122;-76
2022/06/17 11:28:10;;;;;;;12.68;6.38;;;;;;;29.33;39.35;101921.38;5076796;28;20472;-76
2022/06/17 11:30:48;;;;;;;15.35;6.20;;;;;;;29.09;40.56;101912.50;5084991;28;20040;-76
2022/06/17 11:33:53;;;;;;;22.08;7.35;;;;;;;29.14;41.91;101909.88;5089969;28;20051;-76
2022/06/17 11:36:23;;;;;;;20.55;8.82;;;;;;;29.49;43.39;101900.28;5078176;28;20479;-77
2022/06/17 11:38:49;;;;;;;20.77;7.78;;;;;;;29.18;44.03;101892.56;5072543;28;20052;-77
2022/06/17 11:41:33;;;;;;;17.25;7.40;;;;;;;29.18;46.11;101879.31;5084282;28;20047;-77